Time;durP1;ratioP1;P1;durP2;ratioP2;P2;SDS_P1;SDS_P2;PMS_P1;PMS_P2;Temp;Humidity;BMP_temperature;BMP_pressure;BME280_temperature;BME280_humidity;BME280_pressure;Samples;Min_cycle;Max_cycle;Signal;HPM_P1;HPM_P2
2022/09/13 00:01:16;;;;;;;2.43;1.07;;;;;;;;;;20642252;28;20231;-74
2022/09/13 00:11:24;;;;;;;3.20;1.10;;;18.80;99.90;;;;;;20612268;28;20246;-74
2022/09/13 00:21:27;;;;;;;1.77;1.10;;;;;;;;;;20615902;28;20254;-74
2022/09/13 00:31:29;;;;;;;1.50;1.10;;;;;;;;;;20653303;28;20280;-75
2022/09/13 00:41:31;;;;;;;1.60;1.00;;;;;;;;;;20654387;28;20275;-73
2022/09/13 00:51:32;;;;;;;1.70;1.00;;;;;;;;;;20642118;28;20224;-74
2022/09/13 01:01:40;;;;;;;1.77;1.00;;;;;;;;;;20635180;28;20273;-74
2022/09/13 01:11:49;;;;;;;1.23;0.90;;;;;;;;;;20651270;28;20244;-74
2022/09/13 01:22:02;;;;;;;2.30;1.10;;;;;;;;;;20652556;28;20274;-76
2022/09/13 01:32:46;;;;;;;1.43;0.80;;;18.20;99.90;;;;;;20641197;28;20243;-74
2022/09/13 01:43:11;;;;;;;1.50;0.90;;;;;;;;;;20643900;28;20267;-74
2022/09/13 01:53:31;;;;;;;1.60;1.00;;;18.00;99.90;;;;;;20593312;28;20224;-74
2022/09/13 02:03:43;;;;;;;1.33;0.97;;;18.10;99.90;;;;;;20617904;28;20224;-74
2022/09/13 02:13:58;;;;;;;1.87;1.20;;;17.90;99.90;;;;;;20643242;28;20228;-74
2022/09/13 02:24:01;;;;;;;1.97;1.00;;;;;;;;;;20641792;28;20643;-74
2022/09/13 02:34:04;;;;;;;1.43;0.80;;;;;;;;;;20635684;28;20302;-74
2022/09/13 02:44:09;;;;;;;1.73;1.20;;;;;;;;;;20636421;28;20222;-74
2022/09/13 02:54:37;;;;;;;1.23;0.90;;;17.60;99.90;;;;;;20646638;28;20223;-74
2022/09/13 03:04:39;;;;;;;2.77;1.10;;;;;;;;;;20644171;28;20223;-74
2022/09/13 03:14:49;;;;;;;1.70;1.20;;;;;;;;;;20663576;28;20457;-74
2022/09/13 03:25:05;;;;;;;4.93;1.00;;;17.50;99.90;;;;;;20666255;28;20224;-75
2022/09/13 03:35:17;;;;;;;1.53;1.13;;;;;;;;;;20650042;28;20586;-74
2022/09/13 03:45:22;;;;;;;1.90;1.13;;;;;;;;;;20646605;28;20302;-74
2022/09/13 03:55:24;;;;;;;1.97;1.30;;;;;;;;;;20662364;28;20290;-76
2022/09/13 04:05:26;;;;;;;1.60;1.13;;;;;;;;;;20655540;28;20695;-74
2022/09/13 04:15:30;;;;;;;2.30;1.30;;;;;;;;;;20647853;28;20240;-75
2022/09/13 04:25:31;;;;;;;2.67;1.20;;;;;;;;;;20634002;28;20212;-73
2022/09/13 04:35:33;;;;;;;1.80;1.20;;;;;;;;;;20648811;28;20625;-73
2022/09/13 04:45:36;;;;;;;1.77;1.10;;;;;;;;;;20661960;28;20566;-74
2022/09/13 04:55:38;;;;;;;2.20;1.17;;;;;;;;;;20661827;28;20581;-74
2022/09/13 05:05:40;;;;;;;2.10;1.30;;;;;;;;;;20650696;28;20657;-74
2022/09/13 05:15:42;;;;;;;2.37;1.50;;;;;;;;;;20659480;28;20228;-75
2022/09/13 05:25:43;;;;;;;2.37;1.40;;;;;;;;;;20650517;28;20633;-74
2022/09/13 05:35:45;;;;;;;1.60;1.07;;;;;;;;;;20641703;28;20220;-74
2022/09/13 05:46:13;;;;;;;2.93;1.37;;;;;;;;;;20657187;28;20243;-76
2022/09/13 05:56:16;;;;;;;1.97;1.43;;;;;;;;;;20491319;28;20241;-70
2022/09/13 06:06:18;;;;;;;1.43;1.10;;;;;;;;;;20494035;28;20688;-69
2022/09/13 06:16:20;;;;;;;1.83;1.17;;;;;;;;;;20496141;28;20225;-71
2022/09/13 06:26:27;;;;;;;1.73;1.13;;;16.80;99.90;;;;;;20467146;28;20767;-71
2022/09/13 06:36:30;;;;;;;1.90;1.20;;;17.00;99.90;;;;;;20492737;28;20216;-71
2022/09/13 06:46:37;;;;;;;3.63;1.10;;;;;;;;;;20500385;28;20240;-71
2022/09/13 06:56:39;;;;;;;3.00;1.13;;;;;;;;;;20510722;28;20253;-71
2022/09/13 07:06:43;;;;;;;3.83;1.40;;;17.20;99.90;;;;;;20509023;28;20327;-71
2022/09/13 07:16:45;;;;;;;2.97;1.17;;;;;;;;;;20505392;28;20221;-71
2022/09/13 07:26:47;;;;;;;2.20;1.30;;;;;;;;;;20507264;28;20213;-70
2022/09/13 07:36:51;;;;;;;1.83;1.33;;;;;;;;;;20504803;28;20225;-71
2022/09/13 07:46:52;;;;;;;2.10;1.40;;;;;;;;;;20505751;28;20221;-71
2022/09/13 07:56:54;;;;;;;5.63;1.30;;;;;;;;;;20497449;28;20268;-71
2022/09/13 08:06:56;;;;;;;2.97;1.50;;;;;;;;;;20502063;28;20225;-71
2022/09/13 08:16:58;;;;;;;2.37;1.50;;;;;;;;;;20501808;28;20229;-71
2022/09/13 08:27:00;;;;;;;2.20;1.40;;;;;;;;;;20503667;28;20209;-70
2022/09/13 08:37:02;;;;;;;4.90;1.63;;;;;;;;;;20502728;28;20300;-73
2022/09/13 08:47:30;;;;;;;4.40;1.80;;;18.50;99.90;;;;;;20505140;28;20228;-72
2022/09/13 08:57:46;;;;;;;2.93;1.93;;;18.80;99.90;;;;;;20581637;28;20583;-72
2022/09/13 09:07:50;;;;;;;2.70;1.80;;;;;;;;;;20580236;28;20221;-71
2022/09/13 09:18:01;;;;;;;1.90;1.40;;;;;;;;;;20578438;28;20585;-72
2022/09/13 09:28:13;;;;;;;3.97;1.90;;;19.10;99.90;;;;;;20577021;28;20636;-72
2022/09/13 09:38:31;;;;;;;3.60;2.53;;;19.10;99.90;;;;;;20536386;28;20241;-69
2022/09/13 09:48:37;;;;;;;3.60;2.33;;;;;;;;;;20495857;28;20230;-73
2022/09/13 09:58:44;;;;;;;4.70;2.13;;;19.60;99.90;;;;;;20495121;28;20642;-73
2022/09/13 10:09:02;;;;;;;3.07;1.70;;;19.70;99.90;;;;;;20492438;28;20217;-72
2022/09/13 10:19:36;;;;;;;2.50;1.90;;;;;;;;;;20496649;28;20285;-73
2022/09/13 10:29:38;;;;;;;1.97;1.40;;;;;;;;;;20462807;28;20290;-72
2022/09/13 10:40:01;;;;;;;2.60;1.70;;;19.90;99.90;;;;;;20495031;28;20227;-73
2022/09/13 10:50:17;;;;;;;2.13;1.47;;;;;;;;;;20495383;28;20643;-73
2022/09/13 11:00:29;;;;;;;1.90;1.50;;;;;;;;;;20493665;28;20219;-73
2022/09/13 11:10:48;;;;;;;1.60;1.20;;;20.20;99.90;;;;;;20492587;28;20569;-73
2022/09/13 11:21:03;;;;;;;1.63;1.27;;;;;;;;;;20488466;28;20303;-73
2022/09/13 11:31:28;;;;;;;3.33;1.20;;;20.80;99.90;;;;;;20496083;28;20277;-73
2022/09/13 11:41:33;;;;;;;1.80;1.00;;;;;;;;;;20507166;28;20270;-75
2022/09/13 11:51:50;;;;;;;1.40;1.00;;;21.70;99.90;;;;;;20506403;28;20550;-74
2022/09/13 12:01:55;;;;;;;2.13;1.30;;;;;;;;;;20517242;28;20566;-72
2022/09/13 12:11:59;;;;;;;2.60;1.23;;;;;;;;;;20500976;28;20215;-72
2022/09/13 12:22:02;;;;;;;2.77;1.33;;;;;;;;;;20503267;28;20202;-73
2022/09/13 12:32:05;;;;;;;3.30;0.83;;;21.70;99.90;;;;;;20502392;28;20270;-75
2022/09/13 12:42:09;;;;;;;1.17;0.80;;;21.40;99.90;;;;;;20498360;28;20228;-74
2022/09/13 12:52:25;;;;;;;2.80;0.90;;;;;;;;;;20499402;28;20591;-73
2022/09/13 13:02:39;;;;;;;1.63;0.90;;;;;;;;;;20496707;28;20251;-77
2022/09/13 13:12:41;;;;;;;1.25;0.80;;;;;;;;;;20496992;28;20220;-72
2022/09/13 13:22:43;;;;;;;0.75;0.60;;;;;;;;;;20499592;28;20591;-72
2022/09/13 13:33:12;;;;;;;1.40;0.70;;;22.90;99.90;;;;;;20495505;28;20235;-72
2022/09/13 13:43:27;;;;;;;2.40;0.70;;;22.70;99.90;;;;;;20508089;28;20208;-73
2022/09/13 13:53:35;;;;;;;1.60;0.68;;;22.60;99.90;;;;;;20494313;28;20232;-73
2022/09/13 14:03:50;;;;;;;1.67;0.93;;;;;;;;;;20493276;28;20301;-73
2022/09/13 14:14:10;;;;;;;2.00;0.90;;;22.80;99.90;;;;;;20486753;28;20300;-73
2022/09/13 14:24:17;;;;;;;1.73;0.75;;;;;;;;;;20491908;28;20222;-73
2022/09/13 14:34:26;;;;;;;3.85;0.98;;;22.80;99.90;;;;;;20492676;28;20217;-72
2022/09/13 14:44:28;;;;;;;1.20;0.80;;;23.00;99.90;;;;;;20490759;29;20539;-73
2022/09/13 14:54:42;;;;;;;2.00;0.60;;;22.80;99.90;;;;;;20490592;28;20244;-72
2022/09/13 15:04:46;;;;;;;1.55;0.90;;;;;;;;;;20483607;28;20218;-72
2022/09/13 15:14:48;;;;;;;1.67;0.70;;;;;;;;;;20505580;28;20215;-72
2022/09/13 15:24:54;;;;;;;0.52;0.50;;;;;;;;;;20505134;28;20226;-75
2022/09/13 15:34:57;;;;;;;0.50;0.40;;;;;;;;;;20501011;28;20785;-74
2022/09/13 15:44:58;;;;;;;1.05;0.52;;;;;;;;;;20502995;28;20744;-72
2022/09/13 15:55:00;;;;;;;0.75;0.57;;;;;;;;;;20504931;28;20288;-73
2022/09/13 16:05:02;;;;;;;4.75;0.85;;;;;;;;;;20503830;28;20218;-72
2022/09/13 16:15:04;;;;;;;1.00;0.60;;;22.80;99.90;;;;;;20504580;28;20615;-72
2022/09/13 16:25:06;;;;;;;1.42;0.65;;;22.70;99.90;;;;;;20497238;28;20228;-72
2022/09/13 16:35:10;;;;;;;1.30;0.80;;;22.60;99.90;;;;;;20507816;28;20296;-73
2022/09/13 16:45:12;;;;;;;1.05;0.52;;;22.60;99.90;;;;;;20520408;28;20248;-73
2022/09/13 16:55:15;;;;;;;0.90;0.52;;;;;;;;;;20531774;28;20236;-73
2022/09/13 17:05:16;;;;;;;3.60;0.88;;;;;;;;;;20494206;28;20685;-72
2022/09/13 17:15:18;;;;;;;2.30;0.80;;;;;;;;;;20507528;28;20231;-71
2022/09/13 17:25:20;;;;;;;4.05;1.23;;;;;;;;;;20506817;28;20749;-72
2022/09/13 17:35:22;;;;;;;2.58;1.20;;;;;;;;;;20512034;28;20290;-71
2022/09/13 17:45:24;;;;;;;4.10;1.27;;;;;;;;;;20491044;28;20299;-72
2022/09/13 17:55:26;;;;;;;3.63;1.40;;;;;;;;;;20480436;28;20749;-71
2022/09/13 18:05:28;;;;;;;4.28;1.58;;;;;;;;;;20524693;28;20222;-72
2022/09/13 18:15:30;;;;;;;3.83;1.63;;;;;;;;;;20528275;28;20288;-73
2022/09/13 18:25:32;;;;;;;2.65;1.90;;;;;;;;;;20541745;28;20282;-70
2022/09/13 18:35:35;;;;;;;3.05;2.50;;;;;;;;;;20524464;28;20242;-70
2022/09/13 18:45:36;;;;;;;2.95;2.13;;;;;;;;;;20545028;28;20284;-71
2022/09/13 18:55:38;;;;;;;5.30;2.50;;;;;;;;;;20564375;28;20847;-71
2022/09/13 19:05:39;;;;;;;4.07;2.55;;;;;;;;;;20550706;28;20273;-72
2022/09/13 19:15:41;;;;;;;3.63;2.50;;;;;;;;;;20534468;28;20231;-71
2022/09/13 19:25:43;;;;;;;3.73;2.77;;;;;;;;;;20513422;28;20235;-71
2022/09/13 19:35:45;;;;;;;4.25;2.75;;;;;;;;;;20520849;28;20262;-71
2022/09/13 19:45:54;;;;;;;4.37;3.03;;;;;;;;;;20507520;28;20262;-72
2022/09/13 19:55:56;;;;;;;4.50;2.80;;;;;;;;;;20483057;28;20247;-72
2022/09/13 20:06:05;;;;;;;4.30;2.57;;;21.40;99.90;;;;;;20511758;28;20245;-73
2022/09/13 20:16:20;;;;;;;4.77;2.27;;;21.40;99.90;;;;;;20537286;28;20599;-71
2022/09/13 20:26:24;;;;;;;3.90;2.20;;;;;;;;;;20499701;28;20210;-71
2022/09/13 20:36:27;;;;;;;2.90;2.10;;;;;;;;;;20498224;28;20761;-71
2022/09/13 20:46:32;;;;;;;4.80;2.00;;;;;;;;;;20531971;28;20234;-72
2022/09/13 20:56:34;;;;;;;3.03;2.07;;;;;;;;;;20534281;28;20222;-73
2022/09/13 21:08:40;;;;;;;3.33;2.37;;;21.20;99.90;;;;;;20496448;28;20230;-73
2022/09/13 21:17:05;;;;;;;4.40;2.37;;;;;;;;;;20497228;28;20222;-73
2022/09/13 21:27:07;;;;;;;4.13;2.40;;;;;;;;;;20499829;28;20202;-72
2022/09/13 21:37:08;;;;;;;4.10;2.20;;;;;;;;;;20499568;28;20223;-71
2022/09/13 21:47:10;;;;;;;2.57;1.90;;;;;;;;;;20498192;28;20238;-71
2022/09/13 21:57:12;;;;;;;3.43;1.83;;;;;;;;;;20495730;28;20574;-71
2022/09/13 22:07:14;;;;;;;2.70;1.90;;;;;;;;;;20520680;28;20219;-72
2022/09/13 22:17:16;;;;;;;3.80;1.83;;;;;;;;;;20512050;28;20594;-71
2022/09/13 22:27:18;;;;;;;2.47;1.90;;;;;;;;;;20543330;28;20277;-72
2022/09/13 22:37:20;;;;;;;3.20;2.20;;;;;;;;;;20531442;28;20701;-71
2022/09/13 22:47:22;;;;;;;3.17;2.33;;;;;;;;;;20543108;28;20230;-72
2022/09/13 22:57:24;;;;;;;3.03;1.87;;;;;;;;;;20556279;28;20229;-71
2022/09/13 23:07:26;;;;;;;3.73;1.90;;;;;;;;;;20542347;28;20239;-71
2022/09/13 23:17:28;;;;;;;1.83;1.47;;;;;;;;;;20535487;28;20319;-71
2022/09/13 23:27:30;;;;;;;2.07;1.40;;;;;;;;;;20538007;28;20220;-72
2022/09/13 23:37:32;;;;;;;4.50;1.60;;;;;;;;;;20558931;28;20234;-72
2022/09/13 23:47:33;;;;;;;1.97;1.10;;;;;;;;;;20554013;28;20228;-72
2022/09/13 23:57:36;;;;;;;3.23;1.37;;;;;;;;;;20539867;28;20716;-72
